createdAt,value
2018-04-17T00:01:50.255Z,27.67
2018-04-17T00:04:18.839Z,26.67
2018-04-17T00:06:46.436Z,26.90
2018-04-17T00:09:14.032Z,29.97
2018-04-17T00:11:41.639Z,28.23
2018-04-17T00:14:09.227Z,28.70
2018-04-17T00:16:36.852Z,26.90
2018-04-17T00:19:04.440Z,24.17
2018-04-17T00:21:32.050Z,20.43
2018-04-17T00:24:00.396Z,25.07
2018-04-17T00:26:27.995Z,22.37
2018-04-17T00:28:56.351Z,25.27
2018-04-17T00:31:23.951Z,22.97
2018-04-17T00:33:51.531Z,25.53
2018-04-17T00:36:19.133Z,23.17
2018-04-17T00:38:46.711Z,21.87
2018-04-17T00:41:15.084Z,22.80
2018-04-17T00:43:43.428Z,20.53
2018-04-17T00:46:11.030Z,21.70
2018-04-17T00:48:39.385Z,23.80
2018-04-17T00:51:06.990Z,23.37
2018-04-17T00:53:46.538Z,24.83
2018-04-17T00:56:14.186Z,24.20
2018-04-17T00:58:41.787Z,20.87
2018-04-17T01:01:09.402Z,25.17
2018-04-17T01:03:36.990Z,24.23
2018-04-17T01:06:04.583Z,21.93
2018-04-17T01:08:32.168Z,23.67
2018-04-17T01:10:59.772Z,23.37
2018-04-17T01:13:27.415Z,18.37
2018-04-17T01:15:55.008Z,25.93
2018-04-17T01:18:22.603Z,26.07
2018-04-17T01:20:50.948Z,24.50
2018-04-17T01:23:18.556Z,24.07
2018-04-17T01:25:46.140Z,26.63
2018-04-17T01:28:13.743Z,27.23
2018-04-17T01:30:42.089Z,25.80
2018-04-17T01:33:09.699Z,24.47
2018-04-17T01:35:37.292Z,27.00
2018-04-17T01:38:04.909Z,28.83
2018-04-17T01:40:33.287Z,30.37
2018-04-17T01:43:02.497Z,31.27
2018-04-17T01:45:30.076Z,28.03
2018-04-17T01:47:57.692Z,30.13
2018-04-17T01:50:26.099Z,27.07
2018-04-17T01:52:53.697Z,30.03
2018-04-17T01:55:21.276Z,28.90
2018-04-17T01:57:48.871Z,27.60
2018-04-17T02:00:17.229Z,27.03
2018-04-17T02:02:44.829Z,27.97
2018-04-17T02:05:12.407Z,26.10
2018-04-17T02:07:39.998Z,25.50
2018-04-17T02:10:07.605Z,30.13
2018-04-17T02:12:35.202Z,25.60
2018-04-17T02:15:02.784Z,26.27
2018-04-17T02:17:31.172Z,29.63
2018-04-17T02:19:59.523Z,27.33
2018-04-17T02:22:27.121Z,22.57
2018-04-17T02:24:54.701Z,26.20
2018-04-17T02:27:22.300Z,21.70
2018-04-17T02:29:49.878Z,20.90
2018-04-17T02:32:17.488Z,22.17
2018-04-17T02:34:45.076Z,20.37
2018-04-17T02:37:12.684Z,21.73
2018-04-17T02:39:40.276Z,25.53
2018-04-17T02:42:07.903Z,23.73
2018-04-17T02:44:35.480Z,23.33
2018-04-17T02:47:03.852Z,21.83
2018-04-17T02:49:31.432Z,23.23
2018-04-17T02:51:59.044Z,19.50
2018-04-17T02:54:27.391Z,19.33
2018-04-17T02:56:54.984Z,23.73
2018-04-17T02:59:23.331Z,20.50
2018-04-17T03:01:51.723Z,20.23
2018-04-17T03:04:19.304Z,19.27
2018-04-17T03:06:46.945Z,20.43
2018-04-17T03:09:15.299Z,19.73
2018-04-17T03:11:42.924Z,20.93
2018-04-17T03:14:10.513Z,22.87
2018-04-17T03:16:38.606Z,27.93
2018-04-17T03:19:06.217Z,26.77
2018-04-17T03:21:33.809Z,25.87
2018-04-17T03:24:01.416Z,34.30
2018-04-17T03:26:29.027Z,38.13
2018-04-17T03:28:56.619Z,31.23
2018-04-17T03:31:24.970Z,36.50
2018-04-17T03:33:52.584Z,30.60
2018-04-17T03:36:20.188Z,34.10
2018-04-17T03:38:47.801Z,30.97
2018-04-17T03:41:15.380Z,21.90
2018-04-17T03:43:42.992Z,45.17
2018-04-17T03:46:11.352Z,30.70
2018-04-17T03:48:38.963Z,40.53
2018-04-17T03:51:06.547Z,38.07
2018-04-17T03:53:34.143Z,34.50
2018-04-17T03:56:01.725Z,33.17
2018-04-17T03:58:29.323Z,45.70
2018-04-17T04:00:56.895Z,34.50
2018-04-17T04:03:24.495Z,40.10
2018-04-17T04:05:52.839Z,34.53
2018-04-17T04:08:20.433Z,33.97
2018-04-17T04:10:48.780Z,82.87
2018-04-17T04:13:16.389Z,40.73
2018-04-17T04:15:43.975Z,150.27
2018-04-17T04:18:23.344Z,129.67
2018-04-17T04:21:02.640Z,198.90
2018-04-17T04:23:42.069Z,284.77
2018-04-17T04:26:21.414Z,158.13
2018-04-17T04:28:49.020Z,109.50
2018-04-17T04:31:17.364Z,131.27
2018-04-17T04:33:44.967Z,83.50
2018-04-17T04:36:12.561Z,70.17
2018-04-17T04:38:40.170Z,117.07
2018-04-17T04:41:08.525Z,94.37
2018-04-17T04:43:36.119Z,51.73
2018-04-17T04:46:04.464Z,89.53
2018-04-17T04:48:32.064Z,44.70
2018-04-17T04:50:59.653Z,27.63
2018-04-17T04:53:27.256Z,26.80
2018-04-17T04:55:54.833Z,57.90
2018-04-17T04:58:23.204Z,41.73
2018-04-17T05:00:51.551Z,32.33
2018-04-17T05:03:19.161Z,35.57
2018-04-17T05:05:46.745Z,24.37
2018-04-17T05:08:14.351Z,28.50
2018-04-17T05:10:41.940Z,48.97
2018-04-17T05:13:09.563Z,29.70
2018-04-17T05:15:37.169Z,60.23
2018-04-17T05:18:04.750Z,35.90
2018-04-17T05:20:32.361Z,74.17
2018-04-17T05:23:00.717Z,73.73
2018-04-17T05:25:28.325Z,51.93
2018-04-17T05:27:55.910Z,53.77
2018-04-17T05:30:23.512Z,63.33
2018-04-17T05:32:51.097Z,82.40
2018-04-17T05:35:18.699Z,30.77
2018-04-17T05:37:46.287Z,53.40
2018-04-17T05:40:13.896Z,103.10
2018-04-17T05:42:41.536Z,53.60
2018-04-17T05:45:09.135Z,60.67
2018-04-17T05:47:36.729Z,50.63
2018-04-17T05:50:05.107Z,68.13
2018-04-17T05:52:33.410Z,92.00
2018-04-17T05:55:00.964Z,46.83
2018-04-17T05:57:28.497Z,62.87
2018-04-17T05:59:56.891Z,76.00
2018-04-17T06:02:24.424Z,138.37
2018-04-17T06:04:52.016Z,64.80
2018-04-17T06:07:19.552Z,54.97
2018-04-17T06:09:47.167Z,119.00
2018-04-17T06:12:14.729Z,104.40
2018-04-17T06:14:42.338Z,54.63
2018-04-17T06:17:10.693Z,67.10
2018-04-17T06:19:38.288Z,96.77
2018-04-17T06:22:05.897Z,57.57
2018-04-17T06:24:33.500Z,98.20
2018-04-17T06:27:01.099Z,91.60
2018-04-17T06:29:28.676Z,58.53
2018-04-17T06:31:56.230Z,176.40
2018-04-17T06:34:23.786Z,97.23
2018-04-17T06:36:51.356Z,52.07
2018-04-17T06:39:18.925Z,68.10
2018-04-17T06:41:46.538Z,105.97
2018-04-17T06:44:14.868Z,68.17
2018-04-17T06:46:42.484Z,116.07
2018-04-17T06:49:10.069Z,63.67
2018-04-17T06:51:37.727Z,78.90
2018-04-17T06:54:05.372Z,101.63
2018-04-17T06:56:32.943Z,32.37
2018-04-17T06:59:00.528Z,30.23
2018-04-17T07:01:28.093Z,30.20
2018-04-17T07:03:56.437Z,38.13
2018-04-17T07:06:23.982Z,32.60
2018-04-17T07:08:51.593Z,39.43
2018-04-17T07:11:19.950Z,74.33
2018-04-17T07:13:47.621Z,23.47
2018-04-17T07:16:16.017Z,22.43
2018-04-17T07:18:44.441Z,16.73
2018-04-17T07:21:12.120Z,20.33
2018-04-17T07:23:39.736Z,25.97
2018-04-17T07:26:07.345Z,23.53
2018-04-17T07:28:35.071Z,51.93
2018-04-17T07:31:02.782Z,39.37
2018-04-17T07:33:30.469Z,20.37
2018-04-17T07:35:58.911Z,18.42
2018-04-17T07:38:26.569Z,52.40
2018-04-17T07:40:54.255Z,36.58
2018-04-17T07:43:21.944Z,14.07
2018-04-17T07:45:49.702Z,14.32
2018-04-17T07:48:29.306Z,19.12
2018-04-17T07:50:57.751Z,14.05
2018-04-17T07:53:25.346Z,13.27
2018-04-17T07:55:53.022Z,13.80
2018-04-17T07:58:21.508Z,17.58
2018-04-17T08:00:49.183Z,15.10
2018-04-17T08:03:16.836Z,13.93
2018-04-17T08:05:45.279Z,16.73
2018-04-17T08:08:13.045Z,16.75
2018-04-17T08:10:41.545Z,16.98
2018-04-17T08:13:09.320Z,15.60
2018-04-17T08:15:36.960Z,17.23
2018-04-17T08:18:04.669Z,15.93
2018-04-17T08:20:32.289Z,15.32
2018-04-17T08:22:59.878Z,16.80
2018-04-17T08:25:27.672Z,16.92
2018-04-17T08:27:55.353Z,16.62
2018-04-17T08:30:23.021Z,16.80
2018-04-17T08:32:50.634Z,17.12
2018-04-17T08:35:18.258Z,17.85
2018-04-17T08:37:45.872Z,15.07
2018-04-17T08:40:13.633Z,16.12
2018-04-17T08:42:41.371Z,15.77
2018-04-17T08:45:08.984Z,18.77
2018-04-17T08:47:36.815Z,18.67
2018-04-17T08:50:04.734Z,20.00
2018-04-17T08:52:33.220Z,19.80
2018-04-17T08:55:01.055Z,18.25
2018-04-17T08:57:29.023Z,17.20
2018-04-17T08:59:58.870Z,18.70
2018-04-17T09:02:26.650Z,19.12
2018-04-17T09:04:55.500Z,18.08
2018-04-17T09:07:23.228Z,18.50
2018-04-17T09:09:51.571Z,18.50
2018-04-17T09:12:20.404Z,19.30
2018-04-17T09:14:49.343Z,18.70
2018-04-17T09:17:16.981Z,20.12
2018-04-17T09:19:45.569Z,20.55
2018-04-17T09:22:13.220Z,20.02
2018-04-17T09:24:40.872Z,17.80
2018-04-17T09:27:08.489Z,19.62
2018-04-17T09:29:36.195Z,18.42
2018-04-17T09:32:03.847Z,17.92
2018-04-17T09:34:31.527Z,16.90
2018-04-17T09:36:59.179Z,17.33
2018-04-17T09:39:26.829Z,16.45
2018-04-17T09:41:54.485Z,17.05
2018-04-17T09:44:22.175Z,16.65
2018-04-17T09:46:49.826Z,17.58
2018-04-17T09:49:17.484Z,18.15
2018-04-17T09:51:45.180Z,17.23
2018-04-17T09:54:13.569Z,16.87
2018-04-17T09:56:41.222Z,15.68
2018-04-17T09:59:09.670Z,17.62
2018-04-17T10:01:37.325Z,14.68
2018-04-17T10:04:05.022Z,15.63
2018-04-17T10:06:32.707Z,16.75
2018-04-17T10:09:00.474Z,16.27
2018-04-17T10:11:28.040Z,14.93
2018-04-17T10:13:55.738Z,14.30
2018-04-17T10:16:23.423Z,14.30
2018-04-17T10:18:51.168Z,14.43
2018-04-17T10:21:18.865Z,13.43
2018-04-17T10:23:46.490Z,12.98
2018-04-17T10:26:14.131Z,13.48
2018-04-17T10:28:41.786Z,12.70
2018-04-17T10:31:09.490Z,10.38
2018-04-17T10:33:37.161Z,10.88
2018-04-17T10:36:04.886Z,9.73
2018-04-17T10:38:32.607Z,11.73
2018-04-17T10:41:00.267Z,11.18
2018-04-17T10:43:27.972Z,10.55
2018-04-17T10:45:55.622Z,10.55
2018-04-17T10:48:23.286Z,12.10
2018-04-17T10:50:50.932Z,8.70
2018-04-17T10:53:18.587Z,8.25
2018-04-17T10:55:46.260Z,10.30
2018-04-17T10:58:13.907Z,9.32
2018-04-17T11:00:41.666Z,8.73
2018-04-17T11:03:09.389Z,7.12
2018-04-17T11:05:37.073Z,6.22
2018-04-17T11:08:04.642Z,5.93
2018-04-17T11:10:32.236Z,6.18
2018-04-17T11:12:59.807Z,5.22
2018-04-17T11:15:27.373Z,6.22
2018-04-17T11:17:54.951Z,5.15
2018-04-17T11:20:23.301Z,5.43
2018-04-17T11:22:50.930Z,6.57
2018-04-17T11:25:18.552Z,3.87
2018-04-17T11:27:46.908Z,3.87
2018-04-17T11:30:14.482Z,4.22
2018-04-17T11:32:42.915Z,3.83
2018-04-17T11:35:10.470Z,4.03
2018-04-17T11:37:38.043Z,2.67
2018-04-17T11:40:05.606Z,3.28
2018-04-17T11:42:33.173Z,3.70
2018-04-17T11:45:00.728Z,4.72
2018-04-17T11:47:28.561Z,3.60
2018-04-17T11:49:56.885Z,4.00
2018-04-17T11:52:24.482Z,2.83
2018-04-17T11:54:52.028Z,3.95
2018-04-17T11:57:19.650Z,3.55
2018-04-17T11:59:47.216Z,3.65
2018-04-17T12:02:14.803Z,3.70
2018-04-17T12:04:43.124Z,3.03
2018-04-17T12:07:10.714Z,3.30
2018-04-17T12:09:38.264Z,3.15
2018-04-17T12:12:05.858Z,3.50
2018-04-17T12:14:34.175Z,4.75
2018-04-17T12:17:01.765Z,3.92
2018-04-17T12:19:29.344Z,5.00
2018-04-17T12:21:57.691Z,3.95
2018-04-17T12:24:25.303Z,3.92
2018-04-17T12:26:53.613Z,2.95
2018-04-17T12:29:21.153Z,2.37
2018-04-17T12:31:48.715Z,3.42
2018-04-17T12:34:16.269Z,2.97
2018-04-17T12:36:43.835Z,3.08
2018-04-17T12:39:11.383Z,2.60
2018-04-17T12:41:38.950Z,2.10
2018-04-17T12:44:06.480Z,3.05
2018-04-17T12:46:34.816Z,2.75
2018-04-17T12:49:02.364Z,2.53
2018-04-17T12:51:29.915Z,2.65
2018-04-17T12:53:57.453Z,2.95
2018-04-17T12:56:24.996Z,2.25
2018-04-17T12:58:53.312Z,2.30
2018-04-17T13:01:20.876Z,3.20
2018-04-17T13:03:48.465Z,3.30
2018-04-17T13:06:16.872Z,3.35
2018-04-17T13:08:44.433Z,2.37
2018-04-17T13:11:12.022Z,3.47
2018-04-17T13:13:39.577Z,2.17
2018-04-17T13:16:07.912Z,1.60
2018-04-17T13:18:35.488Z,4.35
2018-04-17T13:21:03.016Z,2.58
2018-04-17T13:23:30.564Z,5.57
2018-04-17T13:25:58.084Z,2.67
2018-04-17T13:28:25.624Z,4.00
2018-04-17T13:30:53.149Z,2.50
2018-04-17T13:33:21.489Z,2.33
2018-04-17T13:35:49.019Z,2.83
2018-04-17T13:38:17.335Z,2.78
2018-04-17T13:40:44.913Z,3.25
2018-04-17T13:43:12.518Z,3.33
2018-04-17T13:45:42.028Z,2.37
2018-04-17T13:48:10.511Z,4.70
2018-04-17T14:08:12.058Z,5.07
2018-04-17T14:10:40.853Z,2.45
2018-04-17T14:13:08.574Z,3.33
2018-04-17T14:15:36.363Z,2.97
2018-04-17T14:18:04.020Z,5.25
2018-04-17T14:20:39.250Z,3.87
2018-04-17T14:23:06.926Z,2.72
2018-04-17T14:25:36.697Z,3.78
2018-04-17T14:28:04.528Z,2.30
2018-04-17T14:30:34.022Z,2.83
2018-04-17T14:33:02.655Z,4.95
2018-04-17T14:35:40.513Z,2.45
2018-04-17T14:38:08.356Z,2.95
2018-04-17T14:40:37.225Z,2.80
2018-04-17T14:43:12.876Z,4.75
2018-04-17T14:45:40.520Z,4.85
2018-04-17T14:51:00.924Z,2.90
2018-04-17T14:53:28.594Z,2.40
2018-04-17T14:55:56.293Z,2.42
2018-04-17T14:58:23.943Z,2.17
2018-04-17T15:00:52.633Z,3.10
2018-04-17T15:03:20.314Z,2.92
2018-04-17T15:05:48.222Z,3.40
2018-04-17T15:08:15.989Z,2.10
2018-04-17T15:10:43.720Z,3.37
2018-04-17T15:13:11.383Z,4.40
2018-04-17T15:15:40.058Z,5.32
2018-04-17T15:18:08.491Z,2.15
2018-04-17T15:20:36.201Z,2.47
2018-04-17T15:23:03.822Z,2.30
2018-04-17T15:25:31.508Z,10.90
2018-04-17T15:28:00.214Z,3.05
2018-04-17T15:30:34.186Z,3.53
2018-04-17T15:33:01.916Z,1.90
2018-04-17T15:35:31.844Z,4.65
2018-04-17T15:37:59.699Z,2.58
2018-04-17T15:40:27.565Z,3.25
2018-04-17T15:42:55.255Z,3.50
2018-04-17T15:45:22.921Z,2.83
2018-04-17T15:47:50.519Z,2.58
2018-04-17T15:50:18.146Z,4.60
2018-04-17T15:52:45.806Z,5.10
2018-04-17T15:55:20.801Z,3.80
2018-04-17T15:57:48.412Z,3.12
2018-04-17T16:00:18.084Z,4.12
2018-04-17T16:02:45.725Z,3.45
2018-04-17T16:05:21.472Z,5.53
2018-04-17T16:07:50.480Z,3.53
2018-04-17T16:10:20.803Z,4.62
2018-04-17T16:12:49.169Z,2.90
2018-04-17T16:15:17.542Z,5.43
2018-04-17T16:17:45.161Z,5.22
2018-04-17T16:20:12.776Z,3.50
2018-04-17T16:22:41.138Z,3.67
2018-04-17T16:25:08.736Z,3.50
2018-04-17T16:27:36.362Z,2.47
2018-04-17T16:30:03.987Z,2.83
2018-04-17T16:32:31.616Z,3.12
2018-04-17T16:34:59.254Z,4.68
2018-04-17T16:37:27.627Z,4.32
2018-04-17T16:39:55.256Z,3.72
2018-04-17T16:42:22.853Z,3.40
2018-04-17T16:44:50.478Z,1.95
2018-04-17T16:47:18.057Z,4.40
2018-04-17T16:49:45.681Z,4.40
2018-04-17T16:52:13.257Z,4.28
2018-04-17T16:54:40.830Z,2.50
2018-04-17T16:57:08.429Z,3.10
2018-04-17T16:59:36.799Z,2.42
2018-04-17T17:02:05.198Z,3.00
2018-04-17T17:04:32.799Z,4.25
2018-04-17T17:07:00.409Z,3.95
2018-04-17T17:09:27.996Z,3.97
2018-04-17T17:11:55.609Z,2.80
2018-04-17T17:14:25.109Z,4.62
2018-04-17T17:16:52.735Z,2.95
2018-04-17T17:19:20.324Z,5.20
2018-04-17T17:21:48.930Z,2.33
2018-04-17T17:24:17.280Z,2.95
2018-04-17T17:26:44.893Z,2.90
2018-04-17T17:29:12.482Z,3.20
2018-04-17T17:31:40.116Z,2.75
2018-04-17T17:34:07.691Z,2.20
2018-04-17T17:36:36.363Z,2.05
2018-04-17T17:39:03.980Z,3.87
2018-04-17T17:41:31.625Z,1.55
2018-04-17T17:43:59.305Z,2.70
2018-04-17T17:46:26.878Z,2.92
2018-04-17T17:48:54.478Z,1.58
2018-04-17T17:51:22.112Z,4.30
2018-04-17T17:53:49.717Z,1.95
2018-04-17T17:56:19.435Z,3.15
2018-04-17T17:58:47.010Z,2.62
2018-04-17T18:01:14.619Z,2.37
2018-04-17T18:03:42.217Z,2.10
2018-04-17T18:06:09.862Z,2.73
2018-04-17T18:08:37.481Z,3.53
2018-04-17T18:11:05.188Z,3.20
2018-04-17T18:13:32.728Z,2.07
2018-04-17T18:16:00.359Z,4.80
2018-04-17T18:18:28.740Z,5.37
2018-04-17T18:20:56.380Z,5.37
2018-04-17T18:23:24.020Z,4.73
2018-04-17T18:25:52.779Z,6.77
2018-04-17T18:28:20.371Z,2.73
2018-04-17T18:30:53.710Z,4.83
2018-04-17T18:33:21.356Z,4.17
2018-04-17T18:35:48.958Z,6.47
2018-04-17T18:38:16.663Z,4.60
2018-04-17T18:40:44.310Z,5.40
2018-04-17T18:43:12.945Z,9.13
2018-04-17T18:45:41.460Z,2.97
2018-04-17T18:48:09.078Z,4.07
2018-04-17T18:50:36.727Z,4.40
2018-04-17T18:53:05.153Z,4.10
2018-04-17T18:55:33.700Z,3.50
2018-04-17T18:58:01.327Z,6.03
2018-04-17T19:00:28.908Z,5.37
2018-04-17T19:02:56.556Z,4.77
2018-04-17T19:05:24.192Z,4.13
2018-04-17T19:07:51.806Z,5.90
2018-04-17T19:10:20.471Z,4.17
2018-04-17T19:12:48.120Z,3.97
2018-04-17T19:15:15.805Z,6.90
2018-04-17T19:17:43.502Z,4.27
2018-04-17T19:20:11.155Z,5.87
2018-04-17T19:22:38.774Z,5.53
2018-04-17T19:25:06.467Z,4.47
2018-04-17T19:27:34.085Z,5.00
2018-04-17T19:30:01.761Z,6.70
2018-04-17T19:32:29.524Z,7.30
2018-04-17T19:34:57.132Z,5.23
2018-04-17T19:37:25.239Z,4.97
2018-04-17T19:39:52.948Z,6.10
2018-04-17T19:42:20.688Z,5.70
2018-04-17T19:44:48.503Z,5.20
2018-04-17T19:47:16.209Z,4.23
2018-04-17T19:49:43.879Z,6.83
2018-04-17T19:52:11.528Z,5.50
2018-04-17T19:54:39.968Z,5.00
2018-04-17T19:57:08.532Z,5.83
2018-04-17T19:59:36.999Z,6.37
2018-04-17T20:02:05.467Z,5.40
2018-04-17T20:04:34.176Z,4.67
2018-04-17T20:07:01.951Z,5.87
2018-04-17T20:09:29.753Z,7.67
2018-04-17T20:11:57.530Z,5.43
2018-04-17T20:14:26.259Z,5.90
2018-04-17T20:16:53.888Z,5.13
2018-04-17T20:19:28.718Z,8.67
2018-04-17T20:21:56.523Z,7.67
2018-04-17T20:24:24.396Z,8.80
2018-04-17T20:26:52.174Z,8.00
2018-04-17T20:29:20.608Z,8.07
2018-04-17T20:31:48.347Z,8.47
2018-04-17T20:34:16.256Z,7.00
2018-04-17T20:36:44.710Z,7.17
2018-04-17T20:39:13.351Z,8.33
2018-04-17T20:41:41.126Z,7.87
2018-04-17T20:44:08.866Z,7.40
2018-04-17T20:46:36.597Z,9.10
2018-04-17T20:49:04.222Z,7.17
2018-04-17T20:51:31.874Z,9.17
2018-04-17T20:54:02.863Z,7.03
2018-04-17T20:56:30.507Z,8.73
2018-04-17T20:59:00.191Z,10.20
2018-04-17T21:01:28.546Z,7.87
2018-04-17T21:04:00.719Z,8.87
2018-04-17T21:06:28.315Z,9.30
2018-04-17T21:08:55.919Z,8.10
2018-04-17T21:11:23.512Z,9.30
2018-04-17T21:13:51.091Z,8.83
2018-04-17T21:16:18.692Z,10.27
2018-04-17T21:18:47.197Z,12.53
2018-04-17T21:21:14.812Z,8.57
2018-04-17T21:23:49.271Z,17.37
2018-04-17T21:26:16.871Z,9.67
2018-04-17T21:28:45.287Z,10.97
2018-04-17T21:31:12.872Z,10.10
2018-04-17T21:33:46.045Z,12.53
2018-04-17T21:36:13.642Z,10.57
2018-04-17T21:38:42.239Z,8.80
2018-04-17T21:41:10.644Z,8.63
2018-04-17T21:43:39.344Z,8.53
2018-04-17T21:46:06.917Z,11.60
2018-04-17T21:48:39.044Z,9.33
2018-04-17T21:51:07.376Z,10.93
2018-04-17T21:53:41.422Z,9.33
2018-04-17T21:56:09.793Z,13.17
2018-04-17T21:58:52.659Z,10.13
2018-04-17T22:01:26.155Z,11.10
2018-04-17T22:03:57.690Z,10.70
2018-04-17T22:06:25.291Z,10.03
2018-04-17T22:08:53.704Z,11.37
2018-04-17T22:11:21.293Z,11.20
2018-04-17T22:13:48.964Z,9.63
2018-04-17T22:16:18.588Z,10.53
2018-04-17T22:18:46.234Z,11.13
2018-04-17T22:21:15.847Z,9.13
2018-04-17T22:23:43.455Z,10.23
2018-04-17T22:26:18.056Z,11.43
2018-04-17T22:28:45.636Z,9.20
2018-04-17T22:31:17.182Z,10.03
2018-04-17T22:33:44.810Z,11.50
2018-04-17T22:36:13.473Z,11.57
2018-04-17T22:38:41.831Z,12.33
2018-04-17T22:41:10.203Z,8.83
2018-04-17T22:43:37.796Z,11.77
2018-04-17T22:46:06.335Z,10.10
2018-04-17T22:48:33.932Z,12.63
2018-04-17T22:51:03.542Z,10.10
2018-04-17T22:53:31.935Z,11.93
2018-04-17T22:56:05.207Z,9.43
2018-04-17T22:58:33.581Z,9.23
2018-04-17T23:01:04.413Z,11.33
2018-04-17T23:03:32.090Z,11.23
2018-04-17T23:06:02.488Z,9.03
2018-04-17T23:08:30.170Z,11.43
2018-04-17T23:10:59.534Z,11.13
2018-04-17T23:13:27.168Z,10.33
2018-04-17T23:15:59.322Z,10.53
2018-04-17T23:18:26.949Z,15.80
2018-04-17T23:20:55.586Z,10.60
2018-04-17T23:23:23.196Z,10.13
2018-04-17T23:25:53.524Z,12.50
2018-04-17T23:28:21.255Z,12.73
2018-04-17T23:30:49.882Z,10.60
2018-04-17T23:33:18.286Z,13.37
2018-04-17T23:35:46.948Z,12.37
2018-04-17T23:38:14.611Z,12.73
2018-04-17T23:40:43.016Z,15.03
2018-04-17T23:43:12.039Z,11.90
2018-04-17T23:45:39.607Z,12.10
2018-04-17T23:48:07.291Z,11.17
2018-04-17T23:50:36.929Z,10.73
2018-04-17T23:53:05.286Z,11.37
2018-04-17T23:55:32.891Z,12.13
2018-04-17T23:58:02.481Z,13.33
